createdAt,value
2018-12-21T00:02:55.629Z,100578.28
2018-12-21T00:08:08.765Z,100566.13
2018-12-21T00:13:20.980Z,100556.24
2018-12-21T00:18:32.251Z,100540.24
2018-12-21T00:23:46.314Z,100527.53
2018-12-21T00:28:58.469Z,100531.42
2018-12-21T00:34:27.600Z,100528.41
2018-12-21T00:37:02.364Z,100532.88
2018-12-21T00:42:30.768Z,100520.23
2018-12-21T00:47:55.130Z,100519.38
2018-12-21T00:53:06.265Z,100512.77
2018-12-21T00:58:17.414Z,100506.28
2018-12-21T01:03:31.983Z,100511.28
2018-12-21T01:08:43.257Z,100517.77
2018-12-21T01:13:57.454Z,100499.62
2018-12-21T01:19:08.706Z,100497.02
2018-12-21T01:24:20.855Z,100479.34
2018-12-21T01:29:31.804Z,100483.55
2018-12-21T01:32:01.165Z,100493.48
2018-12-21T01:37:13.258Z,100476.15
2018-12-21T01:42:24.406Z,100473.05
2018-12-21T01:47:36.414Z,100452.70
2018-12-21T01:52:48.374Z,100470.33
2018-12-21T01:58:00.924Z,100441.28
2018-12-21T02:03:13.926Z,100428.75
2018-12-21T02:08:25.404Z,100417.88
2018-12-21T02:13:37.774Z,100417.36
2018-12-21T02:18:49.058Z,100391.59
2018-12-21T02:24:03.948Z,100388.63
2018-12-21T02:29:15.051Z,100391.02
2018-12-21T02:34:27.259Z,100371.57
2018-12-21T02:39:38.378Z,100359.95
2018-12-21T02:44:50.361Z,100349.63
2018-12-21T02:50:01.518Z,100350.06
2018-12-21T02:55:13.642Z,100329.00
2018-12-21T03:00:24.745Z,100334.66
2018-12-21T03:05:36.731Z,100311.65
2018-12-21T03:10:47.775Z,100315.10
2018-12-21T03:15:59.822Z,100311.28
2018-12-21T03:21:10.755Z,100300.94
2018-12-21T03:26:22.714Z,100287.73
2018-12-21T03:31:33.992Z,100273.55
2018-12-21T03:36:45.979Z,100265.46
2018-12-21T03:41:57.230Z,100236.14
2018-12-21T03:47:09.232Z,100231.86
2018-12-21T03:52:24.213Z,100206.90
2018-12-21T03:57:34.090Z,100184.61
2018-12-21T04:02:45.102Z,100169.79
2018-12-21T04:07:57.108Z,100146.45
2018-12-21T04:13:08.091Z,100144.06
2018-12-21T04:18:19.035Z,100139.31
2018-12-21T04:23:31.064Z,100118.78
2018-12-21T04:28:38.582Z,100113.20
2018-12-21T04:33:53.386Z,100096.70
2018-12-21T04:39:07.480Z,100085.23
2018-12-21T04:41:37.106Z,100091.80
2018-12-21T04:46:49.050Z,100090.10
2018-12-21T04:52:00.024Z,100080.39
2018-12-21T04:57:12.055Z,100070.27
2018-12-21T05:02:23.213Z,100071.64
2018-12-21T05:07:35.364Z,100050.17
2018-12-21T05:12:46.774Z,100042.80
2018-12-21T05:15:16.226Z,100031.56
2018-12-21T05:20:27.133Z,100009.13
2018-12-21T05:25:39.258Z,99995.25
2018-12-21T05:30:52.242Z,99987.06
2018-12-21T05:36:04.422Z,99975.16
2018-12-21T05:41:47.112Z,99962.16
2018-12-21T05:46:58.205Z,99952.58
2018-12-21T05:52:17.894Z,99909.60
2018-12-21T05:57:29.946Z,99895.34
2018-12-21T06:02:42.028Z,99873.74
2018-12-21T06:07:54.402Z,99867.30
2018-12-21T06:13:05.537Z,99866.85
2018-12-21T06:18:18.621Z,99830.61
2018-12-21T06:23:30.755Z,99836.69
2018-12-21T06:28:41.792Z,99806.92
2018-12-21T06:31:11.134Z,99796.06
2018-12-21T06:36:23.082Z,99788.80
2018-12-21T06:41:34.071Z,99775.80
2018-12-21T06:46:46.193Z,99779.59
2018-12-21T06:51:57.152Z,99759.69
2018-12-21T06:57:09.330Z,99735.73
2018-12-21T07:02:20.371Z,99743.13
2018-12-21T07:07:32.525Z,99739.77
2018-12-21T07:12:43.464Z,99714.06
2018-12-21T07:17:55.409Z,99711.34
2018-12-21T07:23:06.354Z,99719.18
2018-12-21T07:28:18.431Z,99720.05
2018-12-21T07:33:30.394Z,99708.52
2018-12-21T07:38:41.645Z,99678.14
2018-12-21T07:41:11.010Z,99684.23
2018-12-21T07:46:23.060Z,99657.75
2018-12-21T07:51:33.957Z,99637.32
2018-12-21T07:56:45.975Z,99632.92
2018-12-21T08:01:56.959Z,99609.77
2018-12-21T08:07:08.973Z,99596.93
2018-12-21T08:12:20.030Z,99576.06
2018-12-21T08:17:32.199Z,99562.93
2018-12-21T08:22:39.711Z,99558.81
2018-12-21T08:27:51.653Z,99538.48
2018-12-21T08:33:02.698Z,99522.59
2018-12-21T08:38:13.817Z,99505.79
2018-12-21T08:40:43.407Z,99485.02
2018-12-21T08:45:55.469Z,99469.91
2018-12-21T08:51:06.807Z,99482.42
2018-12-21T08:56:18.964Z,99463.58
2018-12-21T09:01:30.070Z,99454.77
2018-12-21T09:06:42.138Z,99461.77
2018-12-21T09:11:53.164Z,99441.22
2018-12-21T09:17:05.422Z,99453.33
2018-12-21T09:22:16.524Z,99439.07
2018-12-21T09:24:46.017Z,99456.66
2018-12-21T09:29:57.030Z,99427.14
2018-12-21T09:35:09.335Z,99432.73
2018-12-21T09:40:20.634Z,99421.38
2018-12-21T09:45:32.845Z,99435.45
2018-12-21T09:50:43.818Z,99423.09
2018-12-21T09:55:55.921Z,99392.88
2018-12-21T10:01:07.350Z,99397.80
2018-12-21T10:06:19.294Z,99387.26
2018-12-21T10:11:31.338Z,99385.83
2018-12-21T10:16:43.408Z,99386.88
2018-12-21T10:21:54.393Z,99376.09
2018-12-21T10:27:06.639Z,99390.04
2018-12-21T10:32:17.756Z,99374.39
2018-12-21T10:37:29.829Z,99358.63
2018-12-21T10:42:40.932Z,99355.64
2018-12-21T10:47:52.944Z,99345.13
2018-12-21T10:53:04.067Z,99343.30
2018-12-21T10:58:16.067Z,99334.78
2018-12-21T11:03:28.125Z,99334.77
2018-12-21T11:08:39.099Z,99326.40
2018-12-21T11:13:51.089Z,99332.14
2018-12-21T11:19:02.288Z,99325.88
2018-12-21T11:24:14.314Z,99327.83
2018-12-21T11:29:27.462Z,99328.44
2018-12-21T11:34:39.531Z,99314.51
2018-12-21T11:39:51.632Z,99316.87
2018-12-21T11:45:03.939Z,99313.73
2018-12-21T11:50:15.263Z,99314.14
2018-12-21T11:55:29.395Z,99314.61
2018-12-21T12:00:40.406Z,99321.89
2018-12-21T12:05:52.651Z,99322.17
2018-12-21T12:11:03.733Z,99330.53
2018-12-21T12:16:15.822Z,99325.89
2018-12-21T12:21:26.857Z,99331.02
2018-12-21T12:26:44.456Z,99340.91
2018-12-21T12:31:52.007Z,99342.98
2018-12-21T12:37:04.010Z,99346.13
2018-12-21T12:42:15.803Z,99352.55
2018-12-21T12:47:27.843Z,99369.77
2018-12-21T12:52:40.768Z,99359.95
2018-12-21T12:57:54.650Z,99358.16
2018-12-21T13:03:06.569Z,99363.16
2018-12-21T13:08:17.674Z,99360.94
2018-12-21T13:13:29.826Z,99392.19
2018-12-21T13:18:40.774Z,99391.80
2018-12-21T13:23:51.775Z,99395.06
2018-12-21T13:29:02.751Z,99390.23
2018-12-21T13:34:14.872Z,99406.82
2018-12-21T13:39:27.998Z,99405.97
2018-12-21T13:44:39.901Z,99415.36
2018-12-21T13:49:52.906Z,99416.05
2018-12-21T13:55:07.146Z,99432.80
2018-12-21T14:00:18.055Z,99428.89
2018-12-21T14:05:32.015Z,99452.20
2018-12-21T14:10:42.993Z,99464.66
2018-12-21T14:15:54.236Z,99478.45
2018-12-21T14:21:05.375Z,99492.80
2018-12-21T14:23:34.770Z,99494.66
2018-12-21T14:28:46.843Z,99484.52
2018-12-21T14:33:58.771Z,99512.20
2018-12-21T14:39:11.085Z,99513.67
2018-12-21T14:44:25.543Z,99519.94
2018-12-21T14:49:36.647Z,99535.02
2018-12-21T14:54:48.715Z,99547.74
2018-12-21T15:00:01.830Z,99555.67
2018-12-21T15:05:14.003Z,99568.27
2018-12-21T15:10:24.981Z,99574.13
2018-12-21T15:15:39.198Z,99582.27
2018-12-21T15:20:46.844Z,99601.02
2018-12-21T15:23:16.222Z,99590.53
2018-12-21T15:28:27.351Z,99605.33
2018-12-21T15:30:56.820Z,99621.53
2018-12-21T15:33:26.379Z,99618.38
2018-12-21T15:35:55.984Z,99613.55
2018-12-21T15:38:25.365Z,99619.53
2018-12-21T15:40:54.778Z,99622.38
2018-12-21T15:43:24.185Z,99630.69
2018-12-21T15:45:53.610Z,99642.19
2018-12-21T15:48:23.128Z,99642.75
2018-12-21T15:50:52.769Z,99630.54
2018-12-21T15:56:05.074Z,99651.64
2018-12-21T16:01:16.255Z,99656.09
2018-12-21T16:06:30.473Z,99631.75
2018-12-21T16:11:41.822Z,99671.80
2018-12-21T16:16:55.925Z,99696.60
2018-12-21T16:22:07.043Z,99712.86
2018-12-21T16:27:18.988Z,99704.02
2018-12-21T16:32:29.950Z,99699.89
2018-12-21T16:37:41.887Z,99692.47
2018-12-21T16:42:56.114Z,99693.54
2018-12-21T16:48:10.295Z,99698.13
2018-12-21T16:50:39.978Z,99724.13
2018-12-21T16:53:09.351Z,99729.18
2018-12-21T16:58:20.258Z,99730.57
2018-12-21T17:03:32.543Z,99746.97
2018-12-21T17:08:44.246Z,99748.96
2018-12-21T17:13:56.578Z,99755.16
2018-12-21T17:19:15.225Z,99763.13
2018-12-21T17:24:29.152Z,99771.02
2018-12-21T17:29:40.434Z,99786.34
2018-12-21T17:34:52.598Z,99786.34
2018-12-21T17:40:04.364Z,99801.80
2018-12-21T17:45:16.654Z,99830.64
2018-12-21T17:50:24.821Z,99832.71
2018-12-21T17:55:37.001Z,99842.13
2018-12-21T18:00:48.134Z,99845.05
2018-12-21T18:03:30.029Z,99864.19
2018-12-21T18:08:41.032Z,99861.67
2018-12-21T18:13:53.242Z,99871.14
2018-12-21T18:19:04.136Z,99878.50
2018-12-21T18:24:30.235Z,99888.60
2018-12-21T18:29:43.509Z,99907.38
2018-12-21T18:35:15.628Z,99915.31
2018-12-21T18:40:39.689Z,99920.63
2018-12-21T18:45:52.177Z,99922.79
2018-12-21T18:51:04.547Z,99929.97
2018-12-21T18:56:22.852Z,99941.78
2018-12-21T19:01:34.401Z,99954.35
2018-12-21T19:06:47.175Z,99961.84
2018-12-21T19:11:58.489Z,99966.97
2018-12-21T19:17:10.835Z,99968.55
2018-12-21T19:22:22.169Z,99963.79
2018-12-21T19:27:35.201Z,99971.77
2018-12-21T19:32:48.589Z,99971.72
2018-12-21T19:38:01.304Z,99962.52
2018-12-21T19:43:12.515Z,99963.29
2018-12-21T19:48:24.253Z,99968.50
2018-12-21T19:53:38.846Z,99978.15
2018-12-21T19:59:04.248Z,99986.66
2018-12-21T20:04:16.591Z,100010.03
2018-12-21T20:09:28.151Z,99988.36
2018-12-21T20:14:40.427Z,99994.60
2018-12-21T20:19:51.847Z,100015.40
2018-12-21T20:25:04.582Z,100016.25
2018-12-21T20:30:19.315Z,100014.70
2018-12-21T20:35:31.881Z,100030.05
2018-12-21T20:40:45.546Z,100008.19
2018-12-21T20:45:57.558Z,100028.95
2018-12-21T20:51:08.599Z,100047.78
2018-12-21T20:53:37.947Z,100045.50
2018-12-21T20:58:56.323Z,100047.92
2018-12-21T21:04:08.654Z,100055.78
2018-12-21T21:09:19.505Z,100055.69
2018-12-21T21:14:31.436Z,100075.41
2018-12-21T21:19:41.107Z,100070.31
2018-12-21T21:24:53.315Z,100080.35
2018-12-21T21:30:05.328Z,100075.52
2018-12-21T21:35:17.571Z,100084.92
2018-12-21T21:40:29.570Z,100082.65
2018-12-21T21:45:43.888Z,100096.68
2018-12-21T21:50:56.071Z,100094.41
2018-12-21T21:56:08.994Z,100109.58
2018-12-21T22:01:20.688Z,100116.02
2018-12-21T22:03:50.618Z,100119.59
2018-12-21T22:09:04.171Z,100123.64
2018-12-21T22:11:33.884Z,100125.61
2018-12-21T22:16:47.654Z,100134.77
2018-12-21T22:21:59.431Z,100137.17
2018-12-21T22:27:09.976Z,100142.08
2018-12-21T22:32:21.505Z,100132.07
2018-12-21T22:37:34.092Z,100145.22
2018-12-21T22:42:46.274Z,100156.33
2018-12-21T22:47:58.280Z,100153.25
2018-12-21T22:53:09.197Z,100156.84
2018-12-21T22:58:21.158Z,100157.05
2018-12-21T23:03:33.210Z,100156.16
2018-12-21T23:08:46.299Z,100149.22
2018-12-21T23:13:58.349Z,100161.91
2018-12-21T23:19:09.273Z,100162.17
2018-12-21T23:24:21.202Z,100170.16
2018-12-21T23:29:32.342Z,100169.71
2018-12-21T23:32:01.663Z,100165.87
2018-12-21T23:37:13.751Z,100170.67
2018-12-21T23:42:24.810Z,100169.27
2018-12-21T23:47:37.373Z,100160.23
2018-12-21T23:52:49.344Z,100167.35
2018-12-21T23:58:01.427Z,100164.34
